BER67M EDDN-LICA
Flight info
| Callsign | BER67M |
|---|---|
| Flight time | 2h 7m |
| Altitude | 32000 |
| Route | RODIS1G RODIS L604 RUDNO M736 DOSEL/N0461F330 M736 LIZUM N503 LIKDA/N0404F190 N503 CHI/N0461F330 DCT SOR DCT SOBRI/N0404F190 Q182 BAGIX |
| Aircraft | A320/M-SDE3FGHIRWY/LB1 |
Departure
| Time | 2026-04-24 20:55 |
|---|---|
| Airport | Nuremberg Airport (EDDN) |
Arrival
| Time | 2026-04-24 23:02 |
|---|---|
| Airport | Lamezia Terme Sant'Eufemia International Airport (LICA) |
| Time | Latitude | Longitude | Altitude | Speed | Heading |
|---|---|---|---|---|---|
| 2026-04-24 20:08 | 49.49536 | 11.07585 | 1027 ft | 0 kts | 188° |
| 2026-04-24 20:43 | 49.49535 | 11.07585 | 1026 ft | 0 kts | 188° |
| 2026-04-24 20:43 | 49.49545 | 11.07587 | 1024 ft | 2 kts | 188° |
| 2026-04-24 20:43 | 49.49561 | 11.07592 | 1027 ft | 2 kts | 173° |
| 2026-04-24 20:44 | 49.49577 | 11.07589 | 1028 ft | 2 kts | 168° |
| 2026-04-24 20:44 | 49.49591 | 11.07577 | 1026 ft | 2 kts | 98° |
| 2026-04-24 20:44 | 49.49591 | 11.07574 | 1026 ft | 0 kts | 97° |
| 2026-04-24 20:47 | 49.49590 | 11.07584 | 1026 ft | 6 kts | 95° |
| 2026-04-24 20:47 | 49.49592 | 11.07674 | 1027 ft | 7 kts | 88° |
| 2026-04-24 20:47 | 49.49589 | 11.07743 | 1026 ft | 6 kts | 95° |
| 2026-04-24 20:47 | 49.49580 | 11.07834 | 1030 ft | 11 kts | 99° |
| 2026-04-24 20:48 | 49.49567 | 11.07974 | 1030 ft | 16 kts | 99° |
| 2026-04-24 20:48 | 49.49547 | 11.08155 | 1030 ft | 18 kts | 99° |
| 2026-04-24 20:48 | 49.49539 | 11.08316 | 1032 ft | 12 kts | 72° |
| 2026-04-24 20:48 | 49.49596 | 11.08385 | 1031 ft | 10 kts | 58° |
| 2026-04-24 20:49 | 49.49611 | 11.08480 | 1032 ft | 10 kts | 96° |
| 2026-04-24 20:49 | 49.49593 | 11.08662 | 1034 ft | 20 kts | 99° |
| 2026-04-24 20:49 | 49.49573 | 11.08872 | 1036 ft | 19 kts | 98° |
| 2026-04-24 20:49 | 49.49555 | 11.09071 | 1037 ft | 15 kts | 98° |
| 2026-04-24 20:50 | 49.49544 | 11.09181 | 1038 ft | 8 kts | 99° |
| 2026-04-24 20:50 | 49.49537 | 11.09249 | 1040 ft | 4 kts | 99° |
| 2026-04-24 20:50 | 49.49535 | 11.09271 | 1040 ft | 0 kts | 98° |
| 2026-04-24 20:51 | 49.49534 | 11.09274 | 1040 ft | 3 kts | 98° |
| 2026-04-24 20:52 | 49.49547 | 11.09390 | 1042 ft | 14 kts | 59° |
| 2026-04-24 20:52 | 49.49596 | 11.09493 | 1042 ft | 6 kts | 53° |
| 2026-04-24 20:52 | 49.49597 | 11.09494 | 1042 ft | 0 kts | 53° |
| 2026-04-24 20:53 | 49.49600 | 11.09501 | 1042 ft | 6 kts | 53° |
| 2026-04-24 20:53 | 49.49683 | 11.09553 | 1045 ft | 17 kts | 328° |
| 2026-04-24 20:53 | 49.49702 | 11.09500 | 1044 ft | 0 kts | 280° |
| 2026-04-24 20:54 | 49.49707 | 11.09450 | 1043 ft | 23 kts | 278° |
| 2026-04-24 20:55 | 49.49771 | 11.08798 | 1033 ft | 97 kts | 278° |
| 2026-04-24 20:55 | 49.49900 | 11.07466 | 1033 ft | 153 kts | 278° |
| 2026-04-24 20:55 | 49.50068 | 11.05762 | 1416 ft | 166 kts | 279° |
| 2026-04-24 20:55 | 49.50257 | 11.03918 | 1907 ft | 181 kts | 279° |
| 2026-04-24 20:56 | 49.50490 | 11.01964 | 2485 ft | 191 kts | 281° |
| 2026-04-24 20:56 | 49.50732 | 10.99972 | 3086 ft | 192 kts | 279° |
| 2026-04-24 20:56 | 49.50946 | 10.97948 | 3695 ft | 192 kts | 278° |
| 2026-04-24 20:56 | 49.51139 | 10.95822 | 3984 ft | 211 kts | 277° |
| 2026-04-24 20:57 | 49.51636 | 10.93608 | 4214 ft | 233 kts | 308° |
| 2026-04-24 20:57 | 49.53035 | 10.92184 | 4511 ft | 257 kts | 344° |
| 2026-04-24 20:57 | 49.54847 | 10.91834 | 5111 ft | 268 kts | 359° |
| 2026-04-24 20:57 | 49.56727 | 10.91940 | 5895 ft | 272 kts | 3° |
| 2026-04-24 20:58 | 49.58630 | 10.92180 | 6651 ft | 277 kts | 4° |
| 2026-04-24 20:58 | 49.60562 | 10.92419 | 6992 ft | 279 kts | 3° |
| 2026-04-24 20:58 | 49.62509 | 10.92608 | 7748 ft | 281 kts | 2° |
| 2026-04-24 20:58 | 49.64468 | 10.92742 | 8537 ft | 283 kts | 1° |
| 2026-04-24 20:59 | 49.66439 | 10.93032 | 9268 ft | 288 kts | 15° |
| 2026-04-24 20:59 | 49.68217 | 10.94449 | 9962 ft | 293 kts | 41° |
| 2026-04-24 20:59 | 49.69467 | 10.96963 | 10446 ft | 306 kts | 66° |
| 2026-04-24 20:59 | 49.69869 | 11.00278 | 10637 ft | 328 kts | 92° |
| 2026-04-24 21:00 | 49.69701 | 11.03909 | 10776 ft | 350 kts | 95° |
| 2026-04-24 21:00 | 49.69488 | 11.07769 | 10930 ft | 370 kts | 95° |
| 2026-04-24 21:00 | 49.69260 | 11.11787 | 11399 ft | 379 kts | 95° |
| 2026-04-24 21:00 | 49.69036 | 11.15863 | 11998 ft | 383 kts | 95° |
| 2026-04-24 21:01 | 49.68595 | 11.19930 | 12591 ft | 387 kts | 105° |
| 2026-04-24 21:01 | 49.67682 | 11.23849 | 13169 ft | 390 kts | 115° |
| 2026-04-24 21:01 | 49.66395 | 11.27553 | 13753 ft | 393 kts | 119° |
| 2026-04-24 21:01 | 49.65066 | 11.31256 | 14329 ft | 396 kts | 119° |
| 2026-04-24 21:02 | 49.63724 | 11.34993 | 14887 ft | 400 kts | 119° |
| 2026-04-24 21:02 | 49.62370 | 11.38762 | 15442 ft | 403 kts | 119° |
| 2026-04-24 21:02 | 49.61010 | 11.42558 | 15984 ft | 406 kts | 119° |
| 2026-04-24 21:02 | 49.59637 | 11.46381 | 16513 ft | 409 kts | 119° |
| 2026-04-24 21:03 | 49.58251 | 11.50228 | 17045 ft | 412 kts | 119° |
| 2026-04-24 21:03 | 49.56881 | 11.54125 | 17540 ft | 415 kts | 116° |
| 2026-04-24 21:03 | 49.55817 | 11.58275 | 18008 ft | 419 kts | 109° |
| 2026-04-24 21:03 | 49.54856 | 11.62523 | 18496 ft | 421 kts | 109° |
| 2026-04-24 21:04 | 49.53892 | 11.66799 | 18945 ft | 424 kts | 109° |
| 2026-04-24 21:04 | 49.52920 | 11.71100 | 19390 ft | 427 kts | 109° |
| 2026-04-24 21:04 | 49.51936 | 11.75424 | 19822 ft | 429 kts | 109° |
| 2026-04-24 21:04 | 49.50943 | 11.79770 | 20244 ft | 432 kts | 109° |
| 2026-04-24 21:05 | 49.49939 | 11.84136 | 20637 ft | 434 kts | 110° |
| 2026-04-24 21:05 | 49.48921 | 11.88530 | 21025 ft | 437 kts | 110° |
| 2026-04-24 21:05 | 49.47901 | 11.92933 | 21387 ft | 439 kts | 110° |
| 2026-04-24 21:05 | 49.46876 | 11.97373 | 21743 ft | 442 kts | 109° |
| 2026-04-24 21:06 | 49.45848 | 12.01835 | 22082 ft | 444 kts | 109° |
| 2026-04-24 21:06 | 49.44813 | 12.06319 | 22414 ft | 446 kts | 109° |
| 2026-04-24 21:06 | 49.43773 | 12.10821 | 22751 ft | 448 kts | 110° |
| 2026-04-24 21:06 | 49.42721 | 12.15343 | 23074 ft | 450 kts | 110° |
| 2026-04-24 21:07 | 49.41661 | 12.19875 | 23384 ft | 452 kts | 110° |
| 2026-04-24 21:07 | 49.40594 | 12.24426 | 23686 ft | 454 kts | 110° |
| 2026-04-24 21:07 | 49.39521 | 12.28995 | 23976 ft | 456 kts | 110° |
| 2026-04-24 21:07 | 49.38439 | 12.33580 | 24266 ft | 458 kts | 110° |
| 2026-04-24 21:08 | 49.37352 | 12.38180 | 24542 ft | 460 kts | 110° |
| 2026-04-24 21:08 | 49.36015 | 12.42635 | 24800 ft | 461 kts | 121° |
| 2026-04-24 21:08 | 49.34085 | 12.46564 | 25042 ft | 463 kts | 134° |
| 2026-04-24 21:08 | 49.31633 | 12.49754 | 25276 ft | 464 kts | 147° |
| 2026-04-24 21:09 | 49.28779 | 12.52048 | 25508 ft | 465 kts | 160° |
| 2026-04-24 21:09 | 49.25663 | 12.53333 | 25740 ft | 465 kts | 172° |
| 2026-04-24 21:09 | 49.22435 | 12.53573 | 25965 ft | 466 kts | 182° |
| 2026-04-24 21:09 | 49.19193 | 12.53410 | 26182 ft | 467 kts | 182° |
| 2026-04-24 21:10 | 49.15940 | 12.53247 | 26384 ft | 469 kts | 182° |
| 2026-04-24 21:10 | 49.12675 | 12.53083 | 26569 ft | 470 kts | 182° |
| 2026-04-24 21:10 | 49.09399 | 12.52919 | 26774 ft | 471 kts | 182° |
| 2026-04-24 21:10 | 49.06163 | 12.52760 | 27037 ft | 471 kts | 182° |
| 2026-04-24 21:11 | 49.02895 | 12.52594 | 27305 ft | 470 kts | 182° |
| 2026-04-24 21:11 | 48.99623 | 12.52384 | 27575 ft | 469 kts | 183° |
| 2026-04-24 21:11 | 48.96366 | 12.52132 | 27876 ft | 468 kts | 184° |
| 2026-04-24 21:11 | 48.93120 | 12.51860 | 28168 ft | 467 kts | 184° |
| 2026-04-24 21:12 | 48.89881 | 12.51592 | 28445 ft | 466 kts | 184° |
| 2026-04-24 21:12 | 48.87698 | 12.51415 | 28626 ft | 466 kts | 184° |
| 2026-04-24 21:12 | 48.83413 | 12.51071 | 28975 ft | 465 kts | 183° |
| 2026-04-24 21:12 | 48.80185 | 12.50820 | 29234 ft | 465 kts | 183° |
| 2026-04-24 21:13 | 48.76958 | 12.50575 | 29491 ft | 464 kts | 183° |
| 2026-04-24 21:13 | 48.73735 | 12.50334 | 29753 ft | 464 kts | 183° |
| 2026-04-24 21:13 | 48.70511 | 12.50096 | 30008 ft | 463 kts | 183° |
| 2026-04-24 21:13 | 48.67297 | 12.49858 | 30271 ft | 463 kts | 183° |
| 2026-04-24 21:14 | 48.64077 | 12.49618 | 30534 ft | 462 kts | 183° |
| 2026-04-24 21:14 | 48.60869 | 12.49375 | 30798 ft | 462 kts | 183° |
| 2026-04-24 21:14 | 48.57662 | 12.49130 | 31038 ft | 461 kts | 183° |
| 2026-04-24 21:14 | 48.54458 | 12.48885 | 31281 ft | 461 kts | 183° |
| 2026-04-24 21:15 | 48.51257 | 12.48637 | 31529 ft | 460 kts | 183° |
| 2026-04-24 21:15 | 48.48072 | 12.48186 | 31765 ft | 460 kts | 191° |
| 2026-04-24 21:15 | 48.44982 | 12.46993 | 32001 ft | 458 kts | 200° |
| 2026-04-24 21:15 | 48.42077 | 12.45044 | 32236 ft | 457 kts | 210° |
| 2026-04-24 21:16 | 48.39433 | 12.42402 | 32464 ft | 456 kts | 219° |
| 2026-04-24 21:16 | 48.37015 | 12.39314 | 32691 ft | 456 kts | 221° |
| 2026-04-24 21:16 | 48.34603 | 12.36221 | 32912 ft | 456 kts | 221° |
| 2026-04-24 21:16 | 48.32183 | 12.33136 | 33000 ft | 457 kts | 220° |
| 2026-04-24 21:17 | 48.27298 | 12.26951 | 33009 ft | 460 kts | 220° |
| 2026-04-24 21:17 | 48.23230 | 12.21817 | 33009 ft | 460 kts | 220° |
| 2026-04-24 21:18 | 48.17504 | 12.14576 | 33009 ft | 461 kts | 220° |
| 2026-04-24 21:18 | 48.12603 | 12.08385 | 33009 ft | 461 kts | 220° |
| 2026-04-24 21:19 | 48.07695 | 12.02203 | 33009 ft | 461 kts | 220° |
| 2026-04-24 21:19 | 48.02789 | 11.96041 | 33007 ft | 461 kts | 220° |
| 2026-04-24 21:20 | 47.95412 | 11.86828 | 33006 ft | 461 kts | 220° |
| 2026-04-24 21:21 | 47.89995 | 11.81793 | 33005 ft | 461 kts | 202° |
| 2026-04-24 21:21 | 47.83765 | 11.79647 | 32999 ft | 462 kts | 183° |
| 2026-04-24 21:22 | 47.78423 | 11.79343 | 32990 ft | 463 kts | 182° |
| 2026-04-24 21:22 | 47.71983 | 11.78985 | 32986 ft | 464 kts | 182° |
| 2026-04-24 21:23 | 47.65529 | 11.78622 | 32988 ft | 465 kts | 182° |
| 2026-04-24 21:23 | 47.59056 | 11.78255 | 32988 ft | 466 kts | 182° |
| 2026-04-24 21:24 | 47.52567 | 11.77886 | 32985 ft | 467 kts | 182° |
| 2026-04-24 21:24 | 47.46064 | 11.77525 | 32993 ft | 468 kts | 182° |
| 2026-04-24 21:25 | 47.39549 | 11.77166 | 33012 ft | 468 kts | 182° |
| 2026-04-24 21:25 | 47.32994 | 11.76795 | 33008 ft | 475 kts | 182° |
| 2026-04-24 21:26 | 47.26349 | 11.76426 | 33009 ft | 480 kts | 182° |
| 2026-04-24 21:26 | 47.19642 | 11.76059 | 33008 ft | 484 kts | 182° |
| 2026-04-24 21:27 | 47.12887 | 11.75688 | 33007 ft | 487 kts | 182° |
| 2026-04-24 21:27 | 47.06112 | 11.75318 | 33011 ft | 487 kts | 182° |
| 2026-04-24 21:28 | 46.99334 | 11.74963 | 32985 ft | 489 kts | 182° |
| 2026-04-24 21:28 | 46.92530 | 11.74585 | 32973 ft | 490 kts | 182° |
| 2026-04-24 21:29 | 46.85710 | 11.74206 | 32989 ft | 490 kts | 182° |
| 2026-04-24 21:29 | 46.78898 | 11.73834 | 33028 ft | 489 kts | 182° |
| 2026-04-24 21:30 | 46.72104 | 11.73469 | 33028 ft | 488 kts | 182° |
| 2026-04-24 21:30 | 46.65308 | 11.73102 | 33007 ft | 489 kts | 182° |
| 2026-04-24 21:31 | 46.58509 | 11.72733 | 33006 ft | 489 kts | 182° |
| 2026-04-24 21:31 | 46.51704 | 11.72358 | 33005 ft | 490 kts | 182° |
| 2026-04-24 21:32 | 46.44882 | 11.71974 | 33012 ft | 490 kts | 182° |
| 2026-04-24 21:32 | 46.38059 | 11.71584 | 33011 ft | 491 kts | 182° |
| 2026-04-24 21:33 | 46.31230 | 11.71214 | 33014 ft | 491 kts | 182° |
| 2026-04-24 21:33 | 46.24395 | 11.70862 | 33005 ft | 492 kts | 182° |
| 2026-04-24 21:34 | 46.17588 | 11.70509 | 33009 ft | 488 kts | 182° |
| 2026-04-24 21:34 | 46.10820 | 11.70154 | 33010 ft | 486 kts | 182° |
| 2026-04-24 21:35 | 46.04059 | 11.69791 | 33008 ft | 484 kts | 182° |
| 2026-04-24 21:35 | 45.97372 | 11.69434 | 33010 ft | 485 kts | 182° |
| 2026-04-24 21:36 | 45.90655 | 11.69067 | 33010 ft | 483 kts | 182° |
| 2026-04-24 21:36 | 45.83959 | 11.68709 | 33010 ft | 481 kts | 182° |
| 2026-04-24 21:37 | 45.77278 | 11.68361 | 33005 ft | 481 kts | 182° |
| 2026-04-24 21:37 | 45.70592 | 11.68004 | 33023 ft | 480 kts | 182° |
| 2026-04-24 21:38 | 45.64011 | 11.69301 | 33021 ft | 480 kts | 162° |
| 2026-04-24 21:38 | 45.58126 | 11.73693 | 33023 ft | 480 kts | 143° |
| 2026-04-24 21:39 | 45.52815 | 11.79454 | 33020 ft | 480 kts | 143° |
| 2026-04-24 21:39 | 45.47484 | 11.85170 | 33017 ft | 480 kts | 143° |
| 2026-04-24 21:40 | 45.42144 | 11.90864 | 33015 ft | 480 kts | 143° |
| 2026-04-24 21:40 | 45.36811 | 11.96569 | 33015 ft | 480 kts | 143° |
| 2026-04-24 21:41 | 45.31471 | 12.02272 | 33015 ft | 480 kts | 143° |
| 2026-04-24 21:41 | 45.26134 | 12.07953 | 33016 ft | 480 kts | 143° |
| 2026-04-24 21:42 | 45.20794 | 12.13632 | 33016 ft | 480 kts | 143° |
| 2026-04-24 21:42 | 45.15450 | 12.19309 | 33015 ft | 479 kts | 143° |
| 2026-04-24 21:43 | 45.10115 | 12.24966 | 33013 ft | 479 kts | 143° |
| 2026-04-24 21:43 | 45.04323 | 12.29542 | 33008 ft | 478 kts | 160° |
| 2026-04-24 21:44 | 44.98037 | 12.32633 | 33009 ft | 478 kts | 161° |
| 2026-04-24 21:44 | 44.91755 | 12.35716 | 33008 ft | 478 kts | 161° |
| 2026-04-24 21:45 | 44.85472 | 12.38800 | 33009 ft | 478 kts | 161° |
| 2026-04-24 21:45 | 44.79186 | 12.41879 | 33009 ft | 478 kts | 161° |
| 2026-04-24 21:46 | 44.72899 | 12.44960 | 33010 ft | 478 kts | 161° |
| 2026-04-24 21:46 | 44.66646 | 12.48008 | 33012 ft | 478 kts | 161° |
| 2026-04-24 21:47 | 44.60354 | 12.51060 | 33013 ft | 478 kts | 161° |
| 2026-04-24 21:47 | 44.54065 | 12.54110 | 33010 ft | 478 kts | 161° |
| 2026-04-24 21:48 | 44.47779 | 12.57166 | 33012 ft | 478 kts | 161° |
| 2026-04-24 21:48 | 44.41451 | 12.60233 | 33011 ft | 478 kts | 161° |
| 2026-04-24 21:49 | 44.35156 | 12.63267 | 33010 ft | 478 kts | 161° |
| 2026-04-24 21:49 | 44.28906 | 12.66270 | 33010 ft | 478 kts | 161° |
| 2026-04-24 21:50 | 44.22615 | 12.69293 | 33010 ft | 478 kts | 161° |
| 2026-04-24 21:50 | 44.16321 | 12.72307 | 33010 ft | 478 kts | 161° |
| 2026-04-24 21:51 | 44.10023 | 12.75310 | 33010 ft | 478 kts | 161° |
| 2026-04-24 21:51 | 44.03727 | 12.78309 | 33011 ft | 478 kts | 161° |
| 2026-04-24 21:52 | 43.97434 | 12.81308 | 33012 ft | 478 kts | 161° |
| 2026-04-24 21:52 | 43.91132 | 12.84307 | 33010 ft | 479 kts | 161° |
| 2026-04-24 21:53 | 43.84830 | 12.87288 | 33009 ft | 479 kts | 161° |
| 2026-04-24 21:53 | 43.78526 | 12.90266 | 33009 ft | 479 kts | 161° |
| 2026-04-24 21:54 | 43.72221 | 12.93242 | 33008 ft | 479 kts | 161° |
| 2026-04-24 21:54 | 43.65914 | 12.96216 | 33009 ft | 479 kts | 161° |
| 2026-04-24 21:55 | 43.59597 | 12.99186 | 33008 ft | 479 kts | 161° |
| 2026-04-24 21:55 | 43.53288 | 13.02137 | 33008 ft | 479 kts | 161° |
| 2026-04-24 21:56 | 43.46965 | 13.05088 | 33006 ft | 480 kts | 161° |
| 2026-04-24 21:56 | 43.40645 | 13.08036 | 33003 ft | 480 kts | 161° |
| 2026-04-24 21:57 | 43.34320 | 13.10982 | 33000 ft | 480 kts | 162° |
| 2026-04-24 21:57 | 43.27984 | 13.13918 | 32982 ft | 481 kts | 162° |
| 2026-04-24 21:58 | 43.21640 | 13.16856 | 33002 ft | 481 kts | 162° |
| 2026-04-24 21:58 | 43.15291 | 13.19794 | 33003 ft | 482 kts | 162° |
| 2026-04-24 21:59 | 43.08937 | 13.22723 | 33008 ft | 482 kts | 162° |
| 2026-04-24 21:59 | 43.02577 | 13.25643 | 33004 ft | 483 kts | 162° |
| 2026-04-24 22:00 | 42.96203 | 13.28575 | 32999 ft | 484 kts | 162° |
| 2026-04-24 22:00 | 42.89820 | 13.31506 | 33010 ft | 485 kts | 162° |
| 2026-04-24 22:01 | 42.83432 | 13.34425 | 33010 ft | 484 kts | 162° |
| 2026-04-24 22:01 | 42.77114 | 13.37301 | 33008 ft | 471 kts | 162° |
| 2026-04-24 22:02 | 42.70932 | 13.40117 | 33009 ft | 468 kts | 162° |
| 2026-04-24 22:02 | 42.64724 | 13.42939 | 33010 ft | 472 kts | 162° |
| 2026-04-24 22:03 | 42.58499 | 13.45764 | 33010 ft | 471 kts | 162° |
| 2026-04-24 22:03 | 42.52312 | 13.48564 | 33008 ft | 468 kts | 162° |
| 2026-04-24 22:04 | 42.46132 | 13.51350 | 32984 ft | 469 kts | 162° |
| 2026-04-24 22:04 | 42.39965 | 13.54129 | 32999 ft | 470 kts | 162° |
| 2026-04-24 22:05 | 42.33756 | 13.56917 | 33004 ft | 470 kts | 162° |
| 2026-04-24 22:05 | 42.27554 | 13.59687 | 33016 ft | 469 kts | 162° |
| 2026-04-24 22:06 | 42.21366 | 13.62461 | 33023 ft | 468 kts | 162° |
| 2026-04-24 22:06 | 42.15192 | 13.65229 | 33012 ft | 468 kts | 162° |
| 2026-04-24 22:07 | 42.09012 | 13.67993 | 33000 ft | 468 kts | 162° |
| 2026-04-24 22:07 | 42.02822 | 13.70742 | 33001 ft | 469 kts | 162° |
| 2026-04-24 22:08 | 41.97887 | 13.73806 | 33003 ft | 468 kts | 143° |
| 2026-04-24 22:08 | 41.92954 | 13.79529 | 32987 ft | 469 kts | 139° |
| 2026-04-24 22:09 | 41.88100 | 13.85331 | 32985 ft | 471 kts | 139° |
| 2026-04-24 22:09 | 41.83190 | 13.91179 | 32991 ft | 472 kts | 139° |
| 2026-04-24 22:10 | 41.78266 | 13.97022 | 32995 ft | 473 kts | 139° |
| 2026-04-24 22:10 | 41.73338 | 14.02838 | 33007 ft | 472 kts | 139° |
| 2026-04-24 22:11 | 41.68415 | 14.08634 | 33015 ft | 470 kts | 139° |
| 2026-04-24 22:11 | 41.63509 | 14.14403 | 33021 ft | 470 kts | 139° |
| 2026-04-24 22:12 | 41.58602 | 14.20160 | 33029 ft | 468 kts | 139° |
| 2026-04-24 22:12 | 41.53711 | 14.25899 | 33029 ft | 468 kts | 139° |
| 2026-04-24 22:13 | 41.48818 | 14.31628 | 33016 ft | 468 kts | 139° |
| 2026-04-24 22:13 | 41.43904 | 14.37350 | 32986 ft | 470 kts | 139° |
| 2026-04-24 22:14 | 41.38977 | 14.43079 | 33001 ft | 470 kts | 139° |
| 2026-04-24 22:14 | 41.34052 | 14.48807 | 33009 ft | 470 kts | 139° |
| 2026-04-24 22:15 | 41.29133 | 14.54519 | 33024 ft | 469 kts | 139° |
| 2026-04-24 22:15 | 41.24287 | 14.60131 | 32956 ft | 448 kts | 139° |
| 2026-04-24 22:15 | 41.21973 | 14.62807 | 32827 ft | 434 kts | 139° |
| 2026-04-24 22:16 | 41.19729 | 14.65398 | 32676 ft | 422 kts | 139° |
| 2026-04-24 22:16 | 41.17534 | 14.67927 | 32316 ft | 416 kts | 139° |
| 2026-04-24 22:16 | 41.15360 | 14.70427 | 31897 ft | 411 kts | 139° |
| 2026-04-24 22:16 | 41.13209 | 14.72897 | 31481 ft | 407 kts | 139° |
| 2026-04-24 22:17 | 41.11078 | 14.75344 | 31040 ft | 404 kts | 139° |
| 2026-04-24 22:17 | 41.08965 | 14.77776 | 30591 ft | 401 kts | 139° |
| 2026-04-24 22:17 | 41.06867 | 14.80191 | 30148 ft | 398 kts | 139° |
| 2026-04-24 22:17 | 41.04775 | 14.82592 | 29684 ft | 396 kts | 140° |
| 2026-04-24 22:18 | 41.02695 | 14.84971 | 29224 ft | 394 kts | 140° |
| 2026-04-24 22:18 | 41.00627 | 14.87334 | 28808 ft | 391 kts | 140° |
| 2026-04-24 22:18 | 40.98576 | 14.89677 | 28391 ft | 388 kts | 140° |
| 2026-04-24 22:18 | 40.96539 | 14.92003 | 27959 ft | 386 kts | 140° |
| 2026-04-24 22:19 | 40.94514 | 14.94313 | 27528 ft | 383 kts | 140° |
| 2026-04-24 22:19 | 40.92502 | 14.96612 | 27044 ft | 382 kts | 140° |
| 2026-04-24 22:19 | 40.90493 | 14.98900 | 26610 ft | 380 kts | 140° |
| 2026-04-24 22:19 | 40.88499 | 15.01170 | 26181 ft | 377 kts | 140° |
| 2026-04-24 22:20 | 40.86521 | 15.03418 | 25778 ft | 373 kts | 140° |
| 2026-04-24 22:20 | 40.84563 | 15.05648 | 25358 ft | 370 kts | 140° |
| 2026-04-24 22:20 | 40.82613 | 15.07863 | 24927 ft | 368 kts | 140° |
| 2026-04-24 22:20 | 40.80677 | 15.10064 | 24448 ft | 367 kts | 140° |
| 2026-04-24 22:21 | 40.78749 | 15.12257 | 23992 ft | 365 kts | 140° |
| 2026-04-24 22:21 | 40.76829 | 15.14438 | 23519 ft | 364 kts | 140° |
| 2026-04-24 22:21 | 40.74918 | 15.16604 | 23114 ft | 361 kts | 140° |
| 2026-04-24 22:21 | 40.73018 | 15.18749 | 22682 ft | 359 kts | 140° |
| 2026-04-24 22:22 | 40.71133 | 15.20874 | 22327 ft | 354 kts | 140° |
| 2026-04-24 22:22 | 40.69273 | 15.22974 | 21967 ft | 350 kts | 140° |
| 2026-04-24 22:22 | 40.67428 | 15.25055 | 21577 ft | 348 kts | 140° |
| 2026-04-24 22:22 | 40.65596 | 15.27121 | 21188 ft | 346 kts | 140° |
| 2026-04-24 22:23 | 40.63775 | 15.29175 | 20790 ft | 344 kts | 140° |
| 2026-04-24 22:23 | 40.61966 | 15.31215 | 20411 ft | 341 kts | 140° |
| 2026-04-24 22:23 | 40.60167 | 15.33240 | 20031 ft | 339 kts | 140° |
| 2026-04-24 22:23 | 40.58377 | 15.35257 | 19651 ft | 337 kts | 140° |
| 2026-04-24 22:24 | 40.56600 | 15.37255 | 19268 ft | 335 kts | 140° |
| 2026-04-24 22:24 | 40.54831 | 15.39243 | 18860 ft | 334 kts | 140° |
| 2026-04-24 22:24 | 40.53066 | 15.41219 | 18470 ft | 333 kts | 140° |
| 2026-04-24 22:24 | 40.51310 | 15.43186 | 18090 ft | 331 kts | 140° |
| 2026-04-24 22:25 | 40.49559 | 15.45149 | 17702 ft | 330 kts | 140° |
| 2026-04-24 22:25 | 40.47816 | 15.47104 | 17334 ft | 329 kts | 140° |
| 2026-04-24 22:25 | 40.46085 | 15.49045 | 17007 ft | 326 kts | 140° |
| 2026-04-24 22:25 | 40.44367 | 15.50968 | 16674 ft | 323 kts | 140° |
| 2026-04-24 22:26 | 40.42661 | 15.52880 | 16323 ft | 322 kts | 140° |
| 2026-04-24 22:26 | 40.40964 | 15.54780 | 15976 ft | 320 kts | 140° |
| 2026-04-24 22:26 | 40.39274 | 15.56670 | 15634 ft | 318 kts | 140° |
| 2026-04-24 22:26 | 40.37591 | 15.58547 | 15294 ft | 317 kts | 140° |
| 2026-04-24 22:27 | 40.35918 | 15.60412 | 14951 ft | 315 kts | 140° |
| 2026-04-24 22:27 | 40.34252 | 15.62267 | 14611 ft | 313 kts | 140° |
| 2026-04-24 22:27 | 40.32593 | 15.64110 | 14283 ft | 312 kts | 140° |
| 2026-04-24 22:27 | 40.30941 | 15.65942 | 13944 ft | 310 kts | 140° |
| 2026-04-24 22:28 | 40.29298 | 15.67767 | 13609 ft | 309 kts | 140° |
| 2026-04-24 22:28 | 40.27663 | 15.69582 | 13276 ft | 308 kts | 140° |
| 2026-04-24 22:28 | 40.26034 | 15.71392 | 12930 ft | 307 kts | 140° |
| 2026-04-24 22:28 | 40.24410 | 15.73198 | 12574 ft | 306 kts | 140° |
| 2026-04-24 22:29 | 40.21184 | 15.76786 | 11876 ft | 303 kts | 140° |
| 2026-04-24 22:29 | 40.19579 | 15.78560 | 11544 ft | 301 kts | 140° |
| 2026-04-24 22:29 | 40.17980 | 15.80324 | 11193 ft | 300 kts | 140° |
| 2026-04-24 22:30 | 40.16388 | 15.82080 | 10852 ft | 299 kts | 140° |
| 2026-04-24 22:30 | 40.14804 | 15.83828 | 10500 ft | 297 kts | 140° |
| 2026-04-24 22:30 | 40.13224 | 15.85573 | 10120 ft | 296 kts | 140° |
| 2026-04-24 22:30 | 40.11656 | 15.87306 | 9776 ft | 294 kts | 140° |
| 2026-04-24 22:31 | 40.10101 | 15.89020 | 9495 ft | 289 kts | 140° |
| 2026-04-24 22:31 | 40.08588 | 15.90689 | 9237 ft | 284 kts | 140° |
| 2026-04-24 22:31 | 40.07069 | 15.92362 | 8756 ft | 287 kts | 140° |
| 2026-04-24 22:31 | 40.05544 | 15.94044 | 8343 ft | 287 kts | 140° |
| 2026-04-24 22:32 | 40.04025 | 15.95719 | 7941 ft | 285 kts | 140° |
| 2026-04-24 22:32 | 40.02512 | 15.97391 | 7528 ft | 285 kts | 140° |
| 2026-04-24 22:32 | 40.01006 | 15.99052 | 7149 ft | 282 kts | 140° |
| 2026-04-24 22:32 | 39.99515 | 16.00688 | 7074 ft | 278 kts | 140° |
| 2026-04-24 22:33 | 39.98024 | 16.02318 | 7329 ft | 281 kts | 141° |
| 2026-04-24 22:33 | 39.96523 | 16.03959 | 7579 ft | 282 kts | 140° |
| 2026-04-24 22:33 | 39.95016 | 16.05611 | 7826 ft | 284 kts | 140° |
| 2026-04-24 22:33 | 39.93496 | 16.07282 | 7972 ft | 286 kts | 140° |
| 2026-04-24 22:34 | 39.91974 | 16.08953 | 8008 ft | 287 kts | 140° |
| 2026-04-24 22:34 | 39.90442 | 16.10627 | 8009 ft | 288 kts | 140° |
| 2026-04-24 22:34 | 39.88905 | 16.12308 | 8007 ft | 288 kts | 140° |
| 2026-04-24 22:34 | 39.87373 | 16.13982 | 8009 ft | 287 kts | 140° |
| 2026-04-24 22:35 | 39.85846 | 16.15649 | 8009 ft | 286 kts | 140° |
| 2026-04-24 22:35 | 39.84322 | 16.17312 | 8008 ft | 286 kts | 140° |
| 2026-04-24 22:35 | 39.82802 | 16.18974 | 7935 ft | 284 kts | 140° |
| 2026-04-24 22:35 | 39.81296 | 16.20618 | 7548 ft | 282 kts | 140° |
| 2026-04-24 22:36 | 39.79801 | 16.22253 | 7157 ft | 280 kts | 140° |
| 2026-04-24 22:36 | 39.78339 | 16.23852 | 6981 ft | 277 kts | 140° |
| 2026-04-24 22:36 | 39.76854 | 16.25472 | 7006 ft | 280 kts | 141° |
| 2026-04-24 22:36 | 39.75362 | 16.27095 | 7008 ft | 280 kts | 141° |
| 2026-04-24 22:37 | 39.73869 | 16.28715 | 7003 ft | 279 kts | 141° |
| 2026-04-24 22:37 | 39.72375 | 16.30331 | 6999 ft | 280 kts | 141° |
| 2026-04-24 22:37 | 39.70878 | 16.31951 | 7010 ft | 280 kts | 141° |
| 2026-04-24 22:37 | 39.69387 | 16.33572 | 7010 ft | 280 kts | 141° |
| 2026-04-24 22:38 | 39.67897 | 16.35194 | 7012 ft | 280 kts | 141° |
| 2026-04-24 22:38 | 39.66404 | 16.36815 | 7012 ft | 280 kts | 141° |
| 2026-04-24 22:38 | 39.64911 | 16.38433 | 7013 ft | 280 kts | 141° |
| 2026-04-24 22:38 | 39.63417 | 16.40046 | 7002 ft | 280 kts | 141° |
| 2026-04-24 22:39 | 39.61920 | 16.41661 | 7004 ft | 280 kts | 141° |
| 2026-04-24 22:39 | 39.60425 | 16.43276 | 6997 ft | 280 kts | 141° |
| 2026-04-24 22:39 | 39.58930 | 16.44893 | 7008 ft | 280 kts | 141° |
| 2026-04-24 22:39 | 39.57433 | 16.46511 | 7009 ft | 281 kts | 141° |
| 2026-04-24 22:40 | 39.55933 | 16.48132 | 7008 ft | 281 kts | 141° |
| 2026-04-24 22:40 | 39.54432 | 16.49756 | 7012 ft | 281 kts | 141° |
| 2026-04-24 22:40 | 39.52931 | 16.51378 | 7011 ft | 281 kts | 141° |
| 2026-04-24 22:40 | 39.51427 | 16.53001 | 7011 ft | 282 kts | 141° |
| 2026-04-24 22:41 | 39.49920 | 16.54625 | 7009 ft | 282 kts | 141° |
| 2026-04-24 22:41 | 39.48408 | 16.56254 | 7009 ft | 282 kts | 141° |
| 2026-04-24 22:41 | 39.46896 | 16.57880 | 7008 ft | 283 kts | 141° |
| 2026-04-24 22:41 | 39.45894 | 16.58958 | 7009 ft | 284 kts | 141° |
| 2026-04-24 22:42 | 39.43871 | 16.61132 | 7006 ft | 282 kts | 141° |
| 2026-04-24 22:42 | 39.42360 | 16.62756 | 7005 ft | 283 kts | 141° |
| 2026-04-24 22:42 | 39.40845 | 16.64385 | 6999 ft | 283 kts | 141° |
| 2026-04-24 22:42 | 39.39329 | 16.66013 | 7002 ft | 283 kts | 141° |
| 2026-04-24 22:43 | 39.37814 | 16.67638 | 7009 ft | 283 kts | 141° |
| 2026-04-24 22:43 | 39.36301 | 16.69261 | 7014 ft | 283 kts | 141° |
| 2026-04-24 22:43 | 39.34786 | 16.70886 | 7017 ft | 283 kts | 141° |
| 2026-04-24 22:43 | 39.33270 | 16.72507 | 7010 ft | 283 kts | 141° |
| 2026-04-24 22:44 | 39.31753 | 16.74128 | 7010 ft | 283 kts | 141° |
| 2026-04-24 22:44 | 39.30240 | 16.75746 | 7009 ft | 282 kts | 141° |
| 2026-04-24 22:44 | 39.28727 | 16.77365 | 7006 ft | 281 kts | 141° |
| 2026-04-24 22:44 | 39.27221 | 16.78976 | 7012 ft | 281 kts | 141° |
| 2026-04-24 22:45 | 39.25715 | 16.80582 | 7010 ft | 281 kts | 141° |
| 2026-04-24 22:45 | 39.24212 | 16.82186 | 7013 ft | 280 kts | 141° |
| 2026-04-24 22:45 | 39.22711 | 16.83789 | 7009 ft | 280 kts | 141° |
| 2026-04-24 22:45 | 39.21211 | 16.85390 | 7011 ft | 280 kts | 141° |
| 2026-04-24 22:46 | 39.19710 | 16.86988 | 7008 ft | 280 kts | 141° |
| 2026-04-24 22:46 | 39.18210 | 16.88584 | 7000 ft | 279 kts | 141° |
| 2026-04-24 22:46 | 39.16710 | 16.90178 | 7013 ft | 280 kts | 141° |
| 2026-04-24 22:46 | 39.15211 | 16.91771 | 7011 ft | 279 kts | 141° |
| 2026-04-24 22:47 | 39.13711 | 16.93363 | 7009 ft | 279 kts | 141° |
| 2026-04-24 22:47 | 39.12212 | 16.94955 | 7009 ft | 280 kts | 141° |
| 2026-04-24 22:47 | 39.10711 | 16.96550 | 7010 ft | 280 kts | 141° |
| 2026-04-24 22:47 | 39.09232 | 16.98121 | 6998 ft | 267 kts | 141° |
| 2026-04-24 22:48 | 39.07846 | 16.99591 | 6875 ft | 256 kts | 141° |
| 2026-04-24 22:48 | 39.06502 | 17.01016 | 6748 ft | 245 kts | 141° |
| 2026-04-24 22:48 | 39.05200 | 17.02395 | 6619 ft | 234 kts | 141° |
| 2026-04-24 22:48 | 39.03947 | 17.03642 | 6490 ft | 222 kts | 150° |
| 2026-04-24 22:49 | 39.02583 | 17.04365 | 6354 ft | 209 kts | 169° |
| 2026-04-24 22:49 | 39.01147 | 17.04520 | 6164 ft | 201 kts | 186° |
| 2026-04-24 22:49 | 38.99804 | 17.04143 | 5949 ft | 196 kts | 203° |
| 2026-04-24 22:49 | 38.98618 | 17.03307 | 5679 ft | 194 kts | 219° |
| 2026-04-24 22:50 | 38.97672 | 17.02088 | 5389 ft | 193 kts | 235° |
| 2026-04-24 22:50 | 38.97009 | 17.00526 | 4860 ft | 206 kts | 249° |
| 2026-04-24 22:50 | 38.96463 | 16.98833 | 4851 ft | 208 kts | 248° |
| 2026-04-24 22:50 | 38.95894 | 16.97103 | 4878 ft | 212 kts | 247° |
| 2026-04-24 22:51 | 38.95511 | 16.95949 | 4879 ft | 212 kts | 248° |
| 2026-04-24 22:51 | 38.94934 | 16.94213 | 4879 ft | 212 kts | 247° |
| 2026-04-24 22:51 | 38.94354 | 16.92470 | 4882 ft | 212 kts | 247° |
| 2026-04-24 22:51 | 38.93774 | 16.90732 | 4880 ft | 212 kts | 247° |
| 2026-04-24 22:52 | 38.93193 | 16.88998 | 4879 ft | 212 kts | 247° |
| 2026-04-24 22:52 | 38.92612 | 16.87259 | 4882 ft | 212 kts | 247° |
| 2026-04-24 22:52 | 38.92030 | 16.85522 | 4880 ft | 212 kts | 247° |
| 2026-04-24 22:52 | 38.91448 | 16.83785 | 4881 ft | 212 kts | 247° |
| 2026-04-24 22:53 | 38.90869 | 16.82044 | 4883 ft | 212 kts | 247° |
| 2026-04-24 22:53 | 38.90290 | 16.80307 | 4880 ft | 212 kts | 247° |
| 2026-04-24 22:53 | 38.89710 | 16.78570 | 4881 ft | 212 kts | 247° |
| 2026-04-24 22:53 | 38.89127 | 16.76835 | 4883 ft | 212 kts | 247° |
| 2026-04-24 22:54 | 38.88543 | 16.75100 | 4882 ft | 212 kts | 247° |
| 2026-04-24 22:54 | 38.87960 | 16.73364 | 4878 ft | 212 kts | 247° |
| 2026-04-24 22:54 | 38.87378 | 16.71629 | 4878 ft | 212 kts | 247° |
| 2026-04-24 22:54 | 38.86796 | 16.69894 | 4871 ft | 213 kts | 247° |
| 2026-04-24 22:55 | 38.86220 | 16.68152 | 4688 ft | 210 kts | 250° |
| 2026-04-24 22:55 | 38.85851 | 16.66375 | 4509 ft | 203 kts | 263° |
| 2026-04-24 22:55 | 38.85818 | 16.64593 | 4333 ft | 197 kts | 274° |
| 2026-04-24 22:55 | 38.85967 | 16.62866 | 4155 ft | 192 kts | 278° |
| 2026-04-24 22:56 | 38.86158 | 16.61187 | 3989 ft | 189 kts | 278° |
| 2026-04-24 22:56 | 38.86355 | 16.59527 | 3902 ft | 188 kts | 278° |
| 2026-04-24 22:56 | 38.86553 | 16.57877 | 3924 ft | 187 kts | 278° |
| 2026-04-24 22:56 | 38.86751 | 16.56225 | 3886 ft | 187 kts | 278° |
| 2026-04-24 22:57 | 38.86948 | 16.54579 | 3878 ft | 187 kts | 278° |
| 2026-04-24 22:57 | 38.87145 | 16.52930 | 3873 ft | 186 kts | 278° |
| 2026-04-24 22:57 | 38.87342 | 16.51280 | 3828 ft | 188 kts | 278° |
| 2026-04-24 22:57 | 38.87539 | 16.49629 | 3651 ft | 187 kts | 278° |
| 2026-04-24 22:58 | 38.87735 | 16.47983 | 3427 ft | 186 kts | 278° |
| 2026-04-24 22:58 | 38.87931 | 16.46344 | 3186 ft | 186 kts | 278° |
| 2026-04-24 22:58 | 38.88121 | 16.44745 | 2936 ft | 176 kts | 278° |
| 2026-04-24 22:58 | 38.88294 | 16.43285 | 2734 ft | 157 kts | 278° |
| 2026-04-24 22:59 | 38.88452 | 16.41952 | 2521 ft | 147 kts | 278° |
| 2026-04-24 22:59 | 38.88603 | 16.40676 | 2342 ft | 143 kts | 278° |
| 2026-04-24 22:59 | 38.88899 | 16.38181 | 1961 ft | 141 kts | 278° |
| 2026-04-24 23:00 | 38.89045 | 16.36943 | 1776 ft | 139 kts | 278° |
| 2026-04-24 23:00 | 38.89188 | 16.35710 | 1575 ft | 140 kts | 277° |
| 2026-04-24 23:00 | 38.89308 | 16.34477 | 1423 ft | 139 kts | 276° |
| 2026-04-24 23:00 | 38.89424 | 16.33235 | 1318 ft | 143 kts | 276° |
| 2026-04-24 23:01 | 38.89544 | 16.31970 | 1218 ft | 143 kts | 276° |
| 2026-04-24 23:01 | 38.89679 | 16.30691 | 965 ft | 145 kts | 280° |
| 2026-04-24 23:01 | 38.89895 | 16.29441 | 700 ft | 143 kts | 282° |
| 2026-04-24 23:01 | 38.90075 | 16.28205 | 453 ft | 137 kts | 278° |
| 2026-04-24 23:02 | 38.90211 | 16.27030 | 240 ft | 131 kts | 278° |
| 2026-04-24 23:02 | 38.90349 | 16.25867 | 61 ft | 130 kts | 278° |
| 2026-04-24 23:02 | 38.90463 | 16.24873 | 35 ft | 89 kts | 278° |
| 2026-04-24 23:02 | 38.90530 | 16.24299 | 28 ft | 49 kts | 278° |
| 2026-04-24 23:03 | 38.90579 | 16.23892 | 30 ft | 42 kts | 279° |
| 2026-04-24 23:03 | 38.90673 | 16.23589 | 34 ft | 29 kts | 308° |
| 2026-04-24 23:03 | 38.90772 | 16.23476 | 33 ft | 18 kts | 353° |
| 2026-04-24 23:03 | 38.90839 | 16.23583 | 32 ft | 18 kts | 95° |
| 2026-04-24 23:04 | 38.90822 | 16.23736 | 32 ft | 15 kts | 93° |
| 2026-04-24 23:04 | 38.90879 | 16.23835 | 32 ft | 13 kts | 73° |
| 2026-04-24 23:04 | 38.90868 | 16.23969 | 30 ft | 18 kts | 98° |
| 2026-04-24 23:04 | 38.90846 | 16.24141 | 32 ft | 20 kts | 101° |
| 2026-04-24 23:05 | 38.90854 | 16.24247 | 31 ft | 9 kts | 29° |
| 2026-04-24 23:05 | 38.90909 | 16.24274 | 31 ft | 6 kts | 53° |
| 2026-04-24 23:05 | 38.90902 | 16.24301 | 32 ft | 0 kts | 128° |
| 2026-04-24 23:05 | 38.90899 | 16.24313 | 32 ft | 0 kts | 111° |
| 2026-04-24 23:06 | 38.90896 | 16.24325 | 30 ft | 1 kts | 103° |